Newtown, Ohio
Current Conditions -  °F | °C
As of 7:53 AM on Thursday 30 Oct 2014 (Local Time) from KHLG Reporting Station
Clear Clear  
Wind Chill: 36°   Ceiling: Unl
Heat Index: 36°   Visibility: 10mi
Dew Point: 33°   Wind: 3mph
Humidity: 89%   Direction: 250°WSW
Pressure: 30.1"   Gusts: NA
Location:  40.2215°N, 80.8189°W
Report Text: KHLG 301153Z 25003KT 10SM CLR 02/01 A3010 RMK AO2 SLP200 T00220006 10050 20022 51010
Loading
Personal Weather Stations






























Interactive Weather Map
Tropical Storm Tracking
New forecast layout! Learn more

10-Day Weather Forecast

Advertisements
Track Severe Weather on mobile